Shanghai Pudong International Airport

ZSPD · 上海, 中国

罗盘
风向 的 风向 的 风向 到 风向 060° 上海浦东国际机场 16L/34R
风: 8 kt, 3 beaufort

2 kt

7 kt
改变
0 1.000 2.000 3.000 4.000 5.000
OVC 4.000 ft
METAR ZSPD 082000Z 06004MPS 020V080 9999 -RA OVC040 14/12 Q1021 NOSIG

METAR 上海浦东国际机场 - ZSPD/PVG

上海浦东国际机场是,中国中的大型机场。 该机场有5条跑道: 16L/34R, 16R/34L, 17L/35R, 17R/35L 和 15/33. 该领域的国际民航组织标志是ZSPD 它的国际航空运输协会代码是PVG.

这份报告是针对2022年12月9日 04:00, 当地时间在上海浦东国际机场进行的。

机场观察

风向为060°,速度为8 kt。 风向在020°和080°之间变化。

可见度为10 km 或者更多。

有乌云密布在4.000 ft的高度。 破损或更高的上限为4.000 ft。

当前天气为光 雨。 温度和风寒是14 °C。 露点为12 °C,相对湿度为88%。 海平面上的气压为1021 hPa (QNH)。

白天

今天,太阳从06:38升起,在16:50降落。 这适用于上海浦东国际机场,世界夏令时可能有所不同。 当地时间与世界标准时间之间的时差为+8 小时。 当前,没有夏令时有效。

公司介绍

我们没有关于这个机场的公司信息。

体会

到Vliegles.nl去找飞行课程,跳伞和其他飞行体验。 浏览页面,了解上海浦东国际机场附近所有可用的活动。 你也可以使用搜索功能来寻找你所在地附近的特定飞行课程、跳伞或其他飞行体验。

跑道

Id 标题 侧风 逆风 侧风 %
16L/34R 168°-348° 7 kt 2 kt 95 %
16R/34L 168°-348° 7 kt 2 kt 95 %
17L/35R 168°-348° 7 kt 2 kt 95 %
17R/35L 168°-348° 7 kt 2 kt 95 %
15/33 168°-348° 7 kt 2 kt 95 %

逆风成分最大的方向会被突出显示,并用于横风计算。 这并不一定意味着这个方向在使用。

乌云

4.000 ft OVC 乌云密布

温度 & 天气

天气 光 雨
温度 14 °C
露点 12 °C
相对湿度 88%
Kp-index 3 (0-9)

白天

日出
06:38 (2:29)
中午
11:44
日落
16:50

小工具

你想在你的网站上有一个关于上海浦东国际机场的当前航空天气(METAR)的小部件吗?

显示HTML代码

我们和第三方通过cookies跟踪您在我们网站上的互联网行为。如果你继续,我们认为你同意我们的饼干政策